sensor_id;sensor_type;location;lat;lon;timestamp;temperature;humidity
66035;HTU21D;52805;51.074;5.842;2024-01-06T00:00:37;9.07;118.99
66035;HTU21D;52805;51.074;5.842;2024-01-06T00:03:02;9.06;118.99
66035;HTU21D;52805;51.074;5.842;2024-01-06T00:05:28;9.06;118.99
66035;HTU21D;52805;51.074;5.842;2024-01-06T00:07:54;9.05;118.99
66035;HTU21D;52805;51.074;5.842;2024-01-06T00:10:19;9.05;118.99
66035;HTU21D;52805;51.074;5.842;2024-01-06T00:12:45;9.08;118.99
66035;HTU21D;52805;51.074;5.842;2024-01-06T00:15:11;9.07;118.99
66035;HTU21D;52805;51.074;5.842;2024-01-06T00:17:37;9.06;118.99
66035;HTU21D;52805;51.074;5.842;2024-01-06T00:20:02;9.08;118.99
66035;HTU21D;52805;51.074;5.842;2024-01-06T00:22:29;9.09;118.99
66035;HTU21D;52805;51.074;5.842;2024-01-06T00:24:55;9.09;118.99
66035;HTU21D;52805;51.074;5.842;2024-01-06T00:27:21;9.10;118.99
66035;HTU21D;52805;51.074;5.842;2024-01-06T00:29:46;9.12;118.99
66035;HTU21D;52805;51.074;5.842;2024-01-06T00:32:12;9.14;118.99
66035;HTU21D;52805;51.074;5.842;2024-01-06T00:34:38;9.15;118.99
66035;HTU21D;52805;51.074;5.842;2024-01-06T00:37:04;9.14;118.99
66035;HTU21D;52805;51.074;5.842;2024-01-06T00:39:29;9.14;118.99
66035;HTU21D;52805;51.074;5.842;2024-01-06T00:41:55;9.12;118.99
66035;HTU21D;52805;51.074;5.842;2024-01-06T00:44:21;9.12;118.99
66035;HTU21D;52805;51.074;5.842;2024-01-06T00:46:47;9.12;118.99
66035;HTU21D;52805;51.074;5.842;2024-01-06T00:49:12;9.11;118.99
66035;HTU21D;52805;51.074;5.842;2024-01-06T00:51:38;9.12;118.99
66035;HTU21D;52805;51.074;5.842;2024-01-06T00:54:04;9.12;118.99
66035;HTU21D;52805;51.074;5.842;2024-01-06T00:56:29;9.14;118.99
66035;HTU21D;52805;51.074;5.842;2024-01-06T00:58:55;9.12;118.99
66035;HTU21D;52805;51.074;5.842;2024-01-06T01:01:21;9.14;118.99
66035;HTU21D;52805;51.074;5.842;2024-01-06T01:03:47;9.10;118.99
66035;HTU21D;52805;51.074;5.842;2024-01-06T01:06:12;9.08;118.99
66035;HTU21D;52805;51.074;5.842;2024-01-06T01:08:38;9.10;118.99
66035;HTU21D;52805;51.074;5.842;2024-01-06T01:11:04;9.14;118.99
66035;HTU21D;52805;51.074;5.842;2024-01-06T01:13:30;9.16;118.99
66035;HTU21D;52805;51.074;5.842;2024-01-06T01:15:56;9.18;118.99
66035;HTU21D;52805;51.074;5.842;2024-01-06T01:18:22;9.20;118.99
66035;HTU21D;52805;51.074;5.842;2024-01-06T01:20:47;9.22;118.99
66035;HTU21D;52805;51.074;5.842;2024-01-06T01:23:13;9.22;118.99
66035;HTU21D;52805;51.074;5.842;2024-01-06T01:25:39;9.22;118.99
66035;HTU21D;52805;51.074;5.842;2024-01-06T01:28:04;9.21;118.99
66035;HTU21D;52805;51.074;5.842;2024-01-06T01:30:30;9.22;118.99
66035;HTU21D;52805;51.074;5.842;2024-01-06T01:32:58;9.24;118.99
66035;HTU21D;52805;51.074;5.842;2024-01-06T01:35:23;9.23;118.99
66035;HTU21D;52805;51.074;5.842;2024-01-06T01:37:49;9.22;118.99
66035;HTU21D;52805;51.074;5.842;2024-01-06T01:40:15;9.19;118.99
66035;HTU21D;52805;51.074;5.842;2024-01-06T01:42:43;9.21;118.99
66035;HTU21D;52805;51.074;5.842;2024-01-06T01:45:09;9.21;118.99
66035;HTU21D;52805;51.074;5.842;2024-01-06T01:47:36;9.22;118.99
66035;HTU21D;52805;51.074;5.842;2024-01-06T01:50:03;9.24;118.99
66035;HTU21D;52805;51.074;5.842;2024-01-06T01:52:30;9.27;118.99
66035;HTU21D;52805;51.074;5.842;2024-01-06T01:54:57;9.27;118.99
66035;HTU21D;52805;51.074;5.842;2024-01-06T01:57:25;9.31;118.99
66035;HTU21D;52805;51.074;5.842;2024-01-06T01:59:52;9.31;118.99
66035;HTU21D;52805;51.074;5.842;2024-01-06T02:02:18;9.27;118.99
66035;HTU21D;52805;51.074;5.842;2024-01-06T02:04:47;9.25;118.99
66035;HTU21D;52805;51.074;5.842;2024-01-06T02:07:13;9.21;118.99
66035;HTU21D;52805;51.074;5.842;2024-01-06T02:09:39;9.15;118.99
66035;HTU21D;52805;51.074;5.842;2024-01-06T02:12:05;9.11;118.99
66035;HTU21D;52805;51.074;5.842;2024-01-06T02:14:30;9.12;118.99
66035;HTU21D;52805;51.074;5.842;2024-01-06T02:16:58;9.11;118.99
66035;HTU21D;52805;51.074;5.842;2024-01-06T02:19:24;9.14;118.99
66035;HTU21D;52805;51.074;5.842;2024-01-06T02:21:52;9.10;118.99
66035;HTU21D;52805;51.074;5.842;2024-01-06T02:24:19;9.08;118.99
66035;HTU21D;52805;51.074;5.842;2024-01-06T02:26:45;9.09;118.99
66035;HTU21D;52805;51.074;5.842;2024-01-06T02:29:11;9.07;118.99
66035;HTU21D;52805;51.074;5.842;2024-01-06T02:31:37;9.05;118.99
66035;HTU21D;52805;51.074;5.842;2024-01-06T02:34:02;9.08;118.99
66035;HTU21D;52805;51.074;5.842;2024-01-06T02:36:28;9.08;118.99
66035;HTU21D;52805;51.074;5.842;2024-01-06T02:38:53;9.05;118.99
66035;HTU21D;52805;51.074;5.842;2024-01-06T02:41:19;9.01;118.99
66035;HTU21D;52805;51.074;5.842;2024-01-06T02:43:45;8.95;118.99
66035;HTU21D;52805;51.074;5.842;2024-01-06T02:46:10;8.93;118.99
66035;HTU21D;52805;51.074;5.842;2024-01-06T02:48:36;8.90;118.99
66035;HTU21D;52805;51.074;5.842;2024-01-06T02:51:02;8.88;118.99
66035;HTU21D;52805;51.074;5.842;2024-01-06T02:53:27;8.82;118.99
66035;HTU21D;52805;51.074;5.842;2024-01-06T02:55:53;8.79;118.99
66035;HTU21D;52805;51.074;5.842;2024-01-06T02:58:19;8.73;118.99
66035;HTU21D;52805;51.074;5.842;2024-01-06T03:00:44;8.71;118.99
66035;HTU21D;52805;51.074;5.842;2024-01-06T03:03:10;8.66;118.99
66035;HTU21D;52805;51.074;5.842;2024-01-06T03:05:36;8.60;118.99
66035;HTU21D;52805;51.074;5.842;2024-01-06T03:08:03;8.49;118.99
66035;HTU21D;52805;51.074;5.842;2024-01-06T03:10:29;8.45;118.99
66035;HTU21D;52805;51.074;5.842;2024-01-06T03:12:54;8.38;118.99
66035;HTU21D;52805;51.074;5.842;2024-01-06T03:15:20;8.38;118.99
66035;HTU21D;52805;51.074;5.842;2024-01-06T03:17:46;8.38;118.99
66035;HTU21D;52805;51.074;5.842;2024-01-06T03:20:11;8.38;118.99
66035;HTU21D;52805;51.074;5.842;2024-01-06T03:22:37;8.39;118.99
66035;HTU21D;52805;51.074;5.842;2024-01-06T03:25:04;8.35;118.99
66035;HTU21D;52805;51.074;5.842;2024-01-06T03:27:30;8.34;118.99
66035;HTU21D;52805;51.074;5.842;2024-01-06T03:29:55;8.35;118.99
66035;HTU21D;52805;51.074;5.842;2024-01-06T03:32:21;8.39;118.99
66035;HTU21D;52805;51.074;5.842;2024-01-06T03:34:47;8.37;118.99
66035;HTU21D;52805;51.074;5.842;2024-01-06T03:37:13;8.39;118.99
66035;HTU21D;52805;51.074;5.842;2024-01-06T03:39:38;8.37;118.99
66035;HTU21D;52805;51.074;5.842;2024-01-06T03:42:04;8.34;118.99
66035;HTU21D;52805;51.074;5.842;2024-01-06T03:44:30;8.30;118.99
66035;HTU21D;52805;51.074;5.842;2024-01-06T03:46:59;8.30;118.99
66035;HTU21D;52805;51.074;5.842;2024-01-06T03:49:25;8.28;118.99
66035;HTU21D;52805;51.074;5.842;2024-01-06T03:51:51;8.22;118.99
66035;HTU21D;52805;51.074;5.842;2024-01-06T03:54:17;8.15;118.99
66035;HTU21D;52805;51.074;5.842;2024-01-06T03:56:43;8.13;118.99
66035;HTU21D;52805;51.074;5.842;2024-01-06T03:59:08;8.11;118.99
66035;HTU21D;52805;51.074;5.842;2024-01-06T04:01:34;8.09;118.99
66035;HTU21D;52805;51.074;5.842;2024-01-06T04:04:05;8.13;118.99
66035;HTU21D;52805;51.074;5.842;2024-01-06T04:06:30;8.07;118.99
66035;HTU21D;52805;51.074;5.842;2024-01-06T04:09:00;8.05;118.99
66035;HTU21D;52805;51.074;5.842;2024-01-06T04:11:27;8.06;118.99
66035;HTU21D;52805;51.074;5.842;2024-01-06T04:13:52;8.06;118.99
66035;HTU21D;52805;51.074;5.842;2024-01-06T04:16:19;8.05;118.99
66035;HTU21D;52805;51.074;5.842;2024-01-06T04:18:45;8.02;118.99
66035;HTU21D;52805;51.074;5.842;2024-01-06T04:21:10;7.97;118.99
66035;HTU21D;52805;51.074;5.842;2024-01-06T04:23:37;7.92;118.99
66035;HTU21D;52805;51.074;5.842;2024-01-06T04:26:03;7.90;118.99
66035;HTU21D;52805;51.074;5.842;2024-01-06T04:28:30;7.93;118.99
66035;HTU21D;52805;51.074;5.842;2024-01-06T04:30:56;7.94;118.99
66035;HTU21D;52805;51.074;5.842;2024-01-06T04:33:21;7.99;118.99
66035;HTU21D;52805;51.074;5.842;2024-01-06T04:35:47;8.01;118.99
66035;HTU21D;52805;51.074;5.842;2024-01-06T04:38:13;8.03;118.99
66035;HTU21D;52805;51.074;5.842;2024-01-06T04:40:38;8.05;118.99
66035;HTU21D;52805;51.074;5.842;2024-01-06T04:43:04;8.05;118.99
66035;HTU21D;52805;51.074;5.842;2024-01-06T04:45:30;8.01;118.99
66035;HTU21D;52805;51.074;5.842;2024-01-06T04:47:55;7.99;118.99
66035;HTU21D;52805;51.074;5.842;2024-01-06T04:50:21;7.96;118.99
66035;HTU21D;52805;51.074;5.842;2024-01-06T04:52:47;7.93;118.99
66035;HTU21D;52805;51.074;5.842;2024-01-06T04:55:13;7.88;118.99
66035;HTU21D;52805;51.074;5.842;2024-01-06T04:57:39;7.83;118.99
66035;HTU21D;52805;51.074;5.842;2024-01-06T05:00:05;7.76;118.99
66035;HTU21D;52805;51.074;5.842;2024-01-06T05:02:31;7.74;118.99
66035;HTU21D;52805;51.074;5.842;2024-01-06T05:04:56;7.73;118.99
66035;HTU21D;52805;51.074;5.842;2024-01-06T05:07:22;7.65;118.99
66035;HTU21D;52805;51.074;5.842;2024-01-06T05:09:48;7.65;118.99
66035;HTU21D;52805;51.074;5.842;2024-01-06T05:12:14;7.67;118.99
66035;HTU21D;52805;51.074;5.842;2024-01-06T05:14:39;7.68;118.99
66035;HTU21D;52805;51.074;5.842;2024-01-06T05:17:05;7.67;118.99
66035;HTU21D;52805;51.074;5.842;2024-01-06T05:19:31;7.64;118.99
66035;HTU21D;52805;51.074;5.842;2024-01-06T05:21:57;7.62;118.99
66035;HTU21D;52805;51.074;5.842;2024-01-06T05:24:23;7.56;118.99
66035;HTU21D;52805;51.074;5.842;2024-01-06T05:26:49;7.50;118.99
66035;HTU21D;52805;51.074;5.842;2024-01-06T05:29:15;7.46;118.99
66035;HTU21D;52805;51.074;5.842;2024-01-06T05:31:40;7.42;118.99
66035;HTU21D;52805;51.074;5.842;2024-01-06T05:34:06;7.39;118.99
66035;HTU21D;52805;51.074;5.842;2024-01-06T05:36:32;7.37;118.99
66035;HTU21D;52805;51.074;5.842;2024-01-06T05:38:58;7.39;118.99
66035;HTU21D;52805;51.074;5.842;2024-01-06T05:41:26;7.34;118.99
66035;HTU21D;52805;51.074;5.842;2024-01-06T05:43:51;7.29;118.99
66035;HTU21D;52805;51.074;5.842;2024-01-06T05:46:21;7.24;118.99
66035;HTU21D;52805;51.074;5.842;2024-01-06T05:48:47;7.19;118.99
66035;HTU21D;52805;51.074;5.842;2024-01-06T05:51:13;7.09;118.99
66035;HTU21D;52805;51.074;5.842;2024-01-06T05:53:38;7.02;118.99
66035;HTU21D;52805;51.074;5.842;2024-01-06T05:56:04;6.98;118.99
66035;HTU21D;52805;51.074;5.842;2024-01-06T05:58:30;6.85;118.99
66035;HTU21D;52805;51.074;5.842;2024-01-06T06:00:55;6.83;118.99
66035;HTU21D;52805;51.074;5.842;2024-01-06T06:03:21;6.85;118.99
66035;HTU21D;52805;51.074;5.842;2024-01-06T06:05:47;6.83;118.99
66035;HTU21D;52805;51.074;5.842;2024-01-06T06:08:12;6.86;118.99
66035;HTU21D;52805;51.074;5.842;2024-01-06T06:10:38;6.83;118.99
66035;HTU21D;52805;51.074;5.842;2024-01-06T06:13:17;6.85;118.99
66035;HTU21D;52805;51.074;5.842;2024-01-06T06:15:42;6.83;118.99
66035;HTU21D;52805;51.074;5.842;2024-01-06T06:18:08;6.72;118.99
66035;HTU21D;52805;51.074;5.842;2024-01-06T06:20:34;6.72;118.99
66035;HTU21D;52805;51.074;5.842;2024-01-06T06:22:59;6.69;118.99
66035;HTU21D;52805;51.074;5.842;2024-01-06T06:25:25;6.69;118.99
66035;HTU21D;52805;51.074;5.842;2024-01-06T06:27:51;6.64;118.99
66035;HTU21D;52805;51.074;5.842;2024-01-06T06:30:16;6.68;118.99
66035;HTU21D;52805;51.074;5.842;2024-01-06T06:32:42;6.69;118.99
66035;HTU21D;52805;51.074;5.842;2024-01-06T06:35:08;6.69;118.99
66035;HTU21D;52805;51.074;5.842;2024-01-06T06:37:33;6.65;118.99
66035;HTU21D;52805;51.074;5.842;2024-01-06T06:39:59;6.65;118.99
66035;HTU21D;52805;51.074;5.842;2024-01-06T06:42:25;6.61;118.99
66035;HTU21D;52805;51.074;5.842;2024-01-06T06:44:51;6.59;118.99
66035;HTU21D;52805;51.074;5.842;2024-01-06T06:47:17;6.55;118.99
66035;HTU21D;52805;51.074;5.842;2024-01-06T06:49:44;6.41;118.99
66035;HTU21D;52805;51.074;5.842;2024-01-06T06:52:10;6.40;118.99
66035;HTU21D;52805;51.074;5.842;2024-01-06T06:54:37;6.45;118.99
66035;HTU21D;52805;51.074;5.842;2024-01-06T06:57:03;6.49;118.99
66035;HTU21D;52805;51.074;5.842;2024-01-06T06:59:29;6.52;118.99
66035;HTU21D;52805;51.074;5.842;2024-01-06T07:01:54;6.59;118.99
66035;HTU21D;52805;51.074;5.842;2024-01-06T07:04:20;6.54;118.99
66035;HTU21D;52805;51.074;5.842;2024-01-06T07:06:46;6.57;118.99
66035;HTU21D;52805;51.074;5.842;2024-01-06T07:09:11;6.56;118.99
66035;HTU21D;52805;51.074;5.842;2024-01-06T07:11:37;6.57;118.99
66035;HTU21D;52805;51.074;5.842;2024-01-06T07:14:03;6.61;118.99
66035;HTU21D;52805;51.074;5.842;2024-01-06T07:16:28;6.63;118.99
66035;HTU21D;52805;51.074;5.842;2024-01-06T07:18:54;6.66;118.99
66035;HTU21D;52805;51.074;5.842;2024-01-06T07:21:20;6.64;118.99
66035;HTU21D;52805;51.074;5.842;2024-01-06T07:23:46;6.66;118.99
66035;HTU21D;52805;51.074;5.842;2024-01-06T07:26:11;6.70;118.99
66035;HTU21D;52805;51.074;5.842;2024-01-06T07:28:37;6.70;118.99
66035;HTU21D;52805;51.074;5.842;2024-01-06T07:31:03;6.72;118.99
66035;HTU21D;52805;51.074;5.842;2024-01-06T07:33:30;6.71;118.99
66035;HTU21D;52805;51.074;5.842;2024-01-06T07:35:55;6.70;118.99
66035;HTU21D;52805;51.074;5.842;2024-01-06T07:38:21;6.74;118.99
66035;HTU21D;52805;51.074;5.842;2024-01-06T07:40:46;6.76;118.99
66035;HTU21D;52805;51.074;5.842;2024-01-06T07:43:12;6.73;118.99
66035;HTU21D;52805;51.074;5.842;2024-01-06T07:45:38;6.72;118.99
66035;HTU21D;52805;51.074;5.842;2024-01-06T07:48:04;6.74;118.99
66035;HTU21D;52805;51.074;5.842;2024-01-06T07:50:30;6.73;118.99
66035;HTU21D;52805;51.074;5.842;2024-01-06T07:52:55;6.71;118.99
66035;HTU21D;52805;51.074;5.842;2024-01-06T07:55:21;6.69;118.99
66035;HTU21D;52805;51.074;5.842;2024-01-06T07:57:47;6.68;118.99
66035;HTU21D;52805;51.074;5.842;2024-01-06T08:00:12;6.68;118.99
66035;HTU21D;52805;51.074;5.842;2024-01-06T08:02:41;6.67;118.99
66035;HTU21D;52805;51.074;5.842;2024-01-06T08:05:07;6.67;118.99
66035;HTU21D;52805;51.074;5.842;2024-01-06T08:07:34;6.67;118.99
66035;HTU21D;52805;51.074;5.842;2024-01-06T08:09:59;6.70;118.99
66035;HTU21D;52805;51.074;5.842;2024-01-06T08:12:25;6.70;118.99
66035;HTU21D;52805;51.074;5.842;2024-01-06T08:14:50;6.73;118.99
66035;HTU21D;52805;51.074;5.842;2024-01-06T08:17:17;6.73;118.99
66035;HTU21D;52805;51.074;5.842;2024-01-06T08:19:43;6.71;118.99
66035;HTU21D;52805;51.074;5.842;2024-01-06T08:22:09;6.71;118.99
66035;HTU21D;52805;51.074;5.842;2024-01-06T08:24:34;6.70;118.99
66035;HTU21D;52805;51.074;5.842;2024-01-06T08:27:00;6.71;118.99
66035;HTU21D;52805;51.074;5.842;2024-01-06T08:29:26;6.71;118.99
66035;HTU21D;52805;51.074;5.842;2024-01-06T08:31:51;6.73;118.99
66035;HTU21D;52805;51.074;5.842;2024-01-06T08:34:18;6.72;118.99
66035;HTU21D;52805;51.074;5.842;2024-01-06T08:36:44;6.72;118.99
66035;HTU21D;52805;51.074;5.842;2024-01-06T08:39:10;6.73;118.99
66035;HTU21D;52805;51.074;5.842;2024-01-06T08:41:35;6.70;118.99
66035;HTU21D;52805;51.074;5.842;2024-01-06T08:44:01;6.69;118.99
66035;HTU21D;52805;51.074;5.842;2024-01-06T08:46:27;6.66;118.99
66035;HTU21D;52805;51.074;5.842;2024-01-06T08:48:52;6.67;118.99
66035;HTU21D;52805;51.074;5.842;2024-01-06T08:51:18;6.68;118.99
66035;HTU21D;52805;51.074;5.842;2024-01-06T08:53:46;6.71;118.99
66035;HTU21D;52805;51.074;5.842;2024-01-06T08:56:11;6.71;118.99
66035;HTU21D;52805;51.074;5.842;2024-01-06T08:58:37;6.71;118.99
66035;HTU21D;52805;51.074;5.842;2024-01-06T09:01:03;6.69;118.99
66035;HTU21D;52805;51.074;5.842;2024-01-06T09:03:29;6.68;118.99
66035;HTU21D;52805;51.074;5.842;2024-01-06T09:05:55;6.63;118.99
66035;HTU21D;52805;51.074;5.842;2024-01-06T09:08:21;6.65;118.99
66035;HTU21D;52805;51.074;5.842;2024-01-06T09:10:47;6.63;118.99
66035;HTU21D;52805;51.074;5.842;2024-01-06T09:13:13;6.59;118.99
66035;HTU21D;52805;51.074;5.842;2024-01-06T09:15:39;6.66;118.99
66035;HTU21D;52805;51.074;5.842;2024-01-06T09:18:04;6.66;118.99
66035;HTU21D;52805;51.074;5.842;2024-01-06T09:20:30;6.67;118.99
66035;HTU21D;52805;51.074;5.842;2024-01-06T09:22:56;6.67;118.99
66035;HTU21D;52805;51.074;5.842;2024-01-06T09:25:21;6.64;118.99
66035;HTU21D;52805;51.074;5.842;2024-01-06T09:27:50;6.66;118.99
66035;HTU21D;52805;51.074;5.842;2024-01-06T09:30:16;6.65;118.99
66035;HTU21D;52805;51.074;5.842;2024-01-06T09:32:42;6.67;118.99
66035;HTU21D;52805;51.074;5.842;2024-01-06T09:35:07;6.61;118.99
66035;HTU21D;52805;51.074;5.842;2024-01-06T09:37:33;6.67;118.99
66035;HTU21D;52805;51.074;5.842;2024-01-06T09:39:59;6.69;118.99
66035;HTU21D;52805;51.074;5.842;2024-01-06T09:42:25;6.63;118.99
66035;HTU21D;52805;51.074;5.842;2024-01-06T09:44:51;6.66;118.99
66035;HTU21D;52805;51.074;5.842;2024-01-06T09:47:18;6.65;118.99
66035;HTU21D;52805;51.074;5.842;2024-01-06T09:49:49;6.68;118.99
66035;HTU21D;52805;51.074;5.842;2024-01-06T09:52:21;6.68;118.99
66035;HTU21D;52805;51.074;5.842;2024-01-06T09:54:53;6.71;118.99
66035;HTU21D;52805;51.074;5.842;2024-01-06T09:57:20;6.75;118.99
66035;HTU21D;52805;51.074;5.842;2024-01-06T09:59:46;6.72;118.99
66035;HTU21D;52805;51.074;5.842;2024-01-06T10:02:16;6.68;118.99
66035;HTU21D;52805;51.074;5.842;2024-01-06T10:04:45;6.68;118.99
66035;HTU21D;52805;51.074;5.842;2024-01-06T10:07:11;6.70;118.99
66035;HTU21D;52805;51.074;5.842;2024-01-06T10:09:40;6.69;118.99
66035;HTU21D;52805;51.074;5.842;2024-01-06T10:12:07;6.74;118.99
66035;HTU21D;52805;51.074;5.842;2024-01-06T10:14:33;6.80;118.99
66035;HTU21D;52805;51.074;5.842;2024-01-06T10:16:59;6.84;118.99
66035;HTU21D;52805;51.074;5.842;2024-01-06T10:19:25;6.83;118.99
66035;HTU21D;52805;51.074;5.842;2024-01-06T10:21:51;6.79;118.99
66035;HTU21D;52805;51.074;5.842;2024-01-06T10:24:18;6.76;118.99
66035;HTU21D;52805;51.074;5.842;2024-01-06T10:26:47;6.73;118.99
66035;HTU21D;52805;51.074;5.842;2024-01-06T10:29:15;6.72;118.99
66035;HTU21D;52805;51.074;5.842;2024-01-06T10:31:41;6.75;118.99
66035;HTU21D;52805;51.074;5.842;2024-01-06T10:34:07;6.76;118.99
66035;HTU21D;52805;51.074;5.842;2024-01-06T10:36:33;6.80;118.99
66035;HTU21D;52805;51.074;5.842;2024-01-06T10:38:58;6.82;118.99
66035;HTU21D;52805;51.074;5.842;2024-01-06T10:41:24;6.81;118.99
66035;HTU21D;52805;51.074;5.842;2024-01-06T10:43:51;6.76;118.99
66035;HTU21D;52805;51.074;5.842;2024-01-06T10:46:19;6.97;118.99
66035;HTU21D;52805;51.074;5.842;2024-01-06T10:48:46;7.12;118.99
66035;HTU21D;52805;51.074;5.842;2024-01-06T10:51:13;7.14;118.99
66035;HTU21D;52805;51.074;5.842;2024-01-06T10:53:42;7.08;118.99
66035;HTU21D;52805;51.074;5.842;2024-01-06T10:56:09;7.04;118.99
66035;HTU21D;52805;51.074;5.842;2024-01-06T10:58:36;7.03;118.99
66035;HTU21D;52805;51.074;5.842;2024-01-06T11:01:11;6.99;118.99
66035;HTU21D;52805;51.074;5.842;2024-01-06T11:03:38;6.97;118.99
66035;HTU21D;52805;51.074;5.842;2024-01-06T11:06:06;6.93;118.99
66035;HTU21D;52805;51.074;5.842;2024-01-06T11:11:27;6.75;118.99
66035;HTU21D;52805;51.074;5.842;2024-01-06T11:14:17;6.65;118.99
66035;HTU21D;52805;51.074;5.842;2024-01-06T11:16:43;6.61;118.99
66035;HTU21D;52805;51.074;5.842;2024-01-06T11:22:20;6.53;118.99
66035;HTU21D;52805;51.074;5.842;2024-01-06T11:24:51;6.54;118.99
66035;HTU21D;52805;51.074;5.842;2024-01-06T11:27:26;6.49;118.99
66035;HTU21D;52805;51.074;5.842;2024-01-06T11:29:59;6.44;118.99
66035;HTU21D;52805;51.074;5.842;2024-01-06T11:32:28;6.30;118.99
66035;HTU21D;52805;51.074;5.842;2024-01-06T11:34:56;6.58;118.99
66035;HTU21D;52805;51.074;5.842;2024-01-06T11:45:28;6.64;118.99
66035;HTU21D;52805;51.074;5.842;2024-01-06T11:47:56;6.58;118.99
66035;HTU21D;52805;51.074;5.842;2024-01-06T11:50:25;6.49;118.99
66035;HTU21D;52805;51.074;5.842;2024-01-06T11:52:52;6.39;118.99
66035;HTU21D;52805;51.074;5.842;2024-01-06T11:55:18;6.35;118.99
66035;HTU21D;52805;51.074;5.842;2024-01-06T11:57:44;6.36;118.99
66035;HTU21D;52805;51.074;5.842;2024-01-06T12:00:11;6.35;118.99
66035;HTU21D;52805;51.074;5.842;2024-01-06T12:02:40;6.37;118.99
66035;HTU21D;52805;51.074;5.842;2024-01-06T12:05:11;6.38;118.99
66035;HTU21D;52805;51.074;5.842;2024-01-06T12:07:37;6.33;118.99
66035;HTU21D;52805;51.074;5.842;2024-01-06T12:10:04;6.28;118.99
66035;HTU21D;52805;51.074;5.842;2024-01-06T12:12:29;6.33;118.99
66035;HTU21D;52805;51.074;5.842;2024-01-06T12:14:55;6.36;118.99
66035;HTU21D;52805;51.074;5.842;2024-01-06T12:17:21;6.27;118.99
66035;HTU21D;52805;51.074;5.842;2024-01-06T12:19:47;6.19;118.99
66035;HTU21D;52805;51.074;5.842;2024-01-06T12:22:15;6.12;118.99
66035;HTU21D;52805;51.074;5.842;2024-01-06T12:24:41;6.10;118.99
66035;HTU21D;52805;51.074;5.842;2024-01-06T12:27:11;6.12;118.99
66035;HTU21D;52805;51.074;5.842;2024-01-06T12:29:41;6.09;118.99
66035;HTU21D;52805;51.074;5.842;2024-01-06T12:32:09;6.10;118.99
66035;HTU21D;52805;51.074;5.842;2024-01-06T12:34:35;6.09;118.99
66035;HTU21D;52805;51.074;5.842;2024-01-06T12:37:02;6.11;118.99
66035;HTU21D;52805;51.074;5.842;2024-01-06T12:39:29;6.10;118.99
66035;HTU21D;52805;51.074;5.842;2024-01-06T12:41:56;6.10;118.99
66035;HTU21D;52805;51.074;5.842;2024-01-06T12:44:22;6.07;118.99
66035;HTU21D;52805;51.074;5.842;2024-01-06T12:46:49;5.95;118.99
66035;HTU21D;52805;51.074;5.842;2024-01-06T12:49:15;5.93;118.99
66035;HTU21D;52805;51.074;5.842;2024-01-06T12:51:41;5.92;118.99
66035;HTU21D;52805;51.074;5.842;2024-01-06T12:54:06;5.93;118.99
66035;HTU21D;52805;51.074;5.842;2024-01-06T12:56:32;5.95;118.99
66035;HTU21D;52805;51.074;5.842;2024-01-06T12:58:58;6.00;118.99
66035;HTU21D;52805;51.074;5.842;2024-01-06T13:01:23;5.98;118.99
66035;HTU21D;52805;51.074;5.842;2024-01-06T13:03:49;5.97;118.99
66035;HTU21D;52805;51.074;5.842;2024-01-06T13:06:15;5.95;118.99
66035;HTU21D;52805;51.074;5.842;2024-01-06T13:08:42;5.90;118.99
66035;HTU21D;52805;51.074;5.842;2024-01-06T13:11:08;5.90;118.99
66035;HTU21D;52805;51.074;5.842;2024-01-06T13:13:34;5.84;118.99
66035;HTU21D;52805;51.074;5.842;2024-01-06T13:16:00;5.85;118.99
66035;HTU21D;52805;51.074;5.842;2024-01-06T13:18:28;5.86;118.99
66035;HTU21D;52805;51.074;5.842;2024-01-06T13:20:54;5.85;118.99
66035;HTU21D;52805;51.074;5.842;2024-01-06T13:23:20;5.84;118.99
66035;HTU21D;52805;51.074;5.842;2024-01-06T13:25:45;5.84;118.99
66035;HTU21D;52805;51.074;5.842;2024-01-06T13:28:11;5.91;118.99
66035;HTU21D;52805;51.074;5.842;2024-01-06T13:30:37;5.86;118.99
66035;HTU21D;52805;51.074;5.842;2024-01-06T13:33:05;5.80;118.99
66035;HTU21D;52805;51.074;5.842;2024-01-06T13:35:31;5.77;118.99
66035;HTU21D;52805;51.074;5.842;2024-01-06T13:37:57;5.79;118.99
66035;HTU21D;52805;51.074;5.842;2024-01-06T13:40:23;5.76;118.99
66035;HTU21D;52805;51.074;5.842;2024-01-06T13:42:50;5.82;118.99
66035;HTU21D;52805;51.074;5.842;2024-01-06T13:45:17;5.84;118.99
66035;HTU21D;52805;51.074;5.842;2024-01-06T13:47:43;5.84;118.99
66035;HTU21D;52805;51.074;5.842;2024-01-06T13:50:12;5.87;118.99
66035;HTU21D;52805;51.074;5.842;2024-01-06T13:52:38;5.91;118.99
66035;HTU21D;52805;51.074;5.842;2024-01-06T13:55:05;5.90;118.99
66035;HTU21D;52805;51.074;5.842;2024-01-06T13:57:32;5.94;118.99
66035;HTU21D;52805;51.074;5.842;2024-01-06T13:59:58;5.91;118.99
66035;HTU21D;52805;51.074;5.842;2024-01-06T14:02:24;5.89;118.99
66035;HTU21D;52805;51.074;5.842;2024-01-06T14:04:51;5.77;118.99
66035;HTU21D;52805;51.074;5.842;2024-01-06T14:07:17;5.67;118.99
66035;HTU21D;52805;51.074;5.842;2024-01-06T14:09:45;5.67;118.99
66035;HTU21D;52805;51.074;5.842;2024-01-06T14:12:11;5.63;118.99
66035;HTU21D;52805;51.074;5.842;2024-01-06T14:14:37;5.65;118.99
66035;HTU21D;52805;51.074;5.842;2024-01-06T14:17:03;5.74;118.99
66035;HTU21D;52805;51.074;5.842;2024-01-06T14:19:28;5.72;118.99
66035;HTU21D;52805;51.074;5.842;2024-01-06T14:21:54;5.64;118.99
66035;HTU21D;52805;51.074;5.842;2024-01-06T14:24:20;5.67;118.99
66035;HTU21D;52805;51.074;5.842;2024-01-06T14:26:50;5.66;118.99
66035;HTU21D;52805;51.074;5.842;2024-01-06T14:29:16;5.68;118.99
66035;HTU21D;52805;51.074;5.842;2024-01-06T14:31:45;5.75;118.99
66035;HTU21D;52805;51.074;5.842;2024-01-06T14:34:11;5.78;118.99
66035;HTU21D;52805;51.074;5.842;2024-01-06T14:36:36;5.81;118.99
66035;HTU21D;52805;51.074;5.842;2024-01-06T14:39:02;5.81;118.99
66035;HTU21D;52805;51.074;5.842;2024-01-06T14:41:32;5.79;118.99
66035;HTU21D;52805;51.074;5.842;2024-01-06T14:43:57;5.76;118.99
66035;HTU21D;52805;51.074;5.842;2024-01-06T14:46:24;5.74;118.99
66035;HTU21D;52805;51.074;5.842;2024-01-06T14:48:50;5.76;118.99
66035;HTU21D;52805;51.074;5.842;2024-01-06T14:51:15;5.69;118.99
66035;HTU21D;52805;51.074;5.842;2024-01-06T14:53:41;5.67;118.99
66035;HTU21D;52805;51.074;5.842;2024-01-06T14:56:07;5.72;118.99
66035;HTU21D;52805;51.074;5.842;2024-01-06T14:58:32;5.67;118.99
66035;HTU21D;52805;51.074;5.842;2024-01-06T15:00:58;5.65;118.99
66035;HTU21D;52805;51.074;5.842;2024-01-06T15:03:25;5.68;118.99
66035;HTU21D;52805;51.074;5.842;2024-01-06T15:05:50;5.62;118.99
66035;HTU21D;52805;51.074;5.842;2024-01-06T15:08:16;5.55;118.99
66035;HTU21D;52805;51.074;5.842;2024-01-06T15:10:42;5.54;118.99
66035;HTU21D;52805;51.074;5.842;2024-01-06T15:13:07;5.53;118.99
66035;HTU21D;52805;51.074;5.842;2024-01-06T15:15:33;5.46;118.99
66035;HTU21D;52805;51.074;5.842;2024-01-06T15:17:59;5.38;118.99
66035;HTU21D;52805;51.074;5.842;2024-01-06T15:20:24;5.38;118.99
66035;HTU21D;52805;51.074;5.842;2024-01-06T15:22:50;5.33;118.99